sensor_id;sensor_type;location;lat;lon;timestamp;temperature;humidity
74224;SHT31;62585;49.706;18.216;2023-10-19T00:00:33;4.76;77.14
74224;SHT31;62585;49.706;18.216;2023-10-19T00:03:19;4.51;77.40
74224;SHT31;62585;49.706;18.216;2023-10-19T00:05:45;4.71;77.13
74224;SHT31;62585;49.706;18.216;2023-10-19T00:08:12;4.66;76.90
74224;SHT31;62585;49.706;18.216;2023-10-19T00:10:40;4.72;76.29
74224;SHT31;62585;49.706;18.216;2023-10-19T00:13:09;4.58;77.27
74224;SHT31;62585;49.706;18.216;2023-10-19T00:15:42;4.75;76.95
74224;SHT31;62585;49.706;18.216;2023-10-19T00:18:15;4.75;76.49
74224;SHT31;62585;49.706;18.216;2023-10-19T00:20:42;4.77;77.23
74224;SHT31;62585;49.706;18.216;2023-10-19T00:23:12;4.92;77.31
74224;SHT31;62585;49.706;18.216;2023-10-19T00:25:39;4.87;76.28
74224;SHT31;62585;49.706;18.216;2023-10-19T00:28:07;4.95;76.13
74224;SHT31;62585;49.706;18.216;2023-10-19T00:30:33;4.92;76.01
74224;SHT31;62585;49.706;18.216;2023-10-19T00:33:01;4.93;76.39
74224;SHT31;62585;49.706;18.216;2023-10-19T00:35:41;4.76;76.91
74224;SHT31;62585;49.706;18.216;2023-10-19T00:38:33;4.97;76.18
74224;SHT31;62585;49.706;18.216;2023-10-19T00:40:59;4.77;76.15
74224;SHT31;62585;49.706;18.216;2023-10-19T00:43:41;4.49;77.15
74224;SHT31;62585;49.706;18.216;2023-10-19T00:46:11;4.41;77.63
74224;SHT31;62585;49.706;18.216;2023-10-19T00:48:56;4.49;76.56
74224;SHT31;62585;49.706;18.216;2023-10-19T00:51:31;4.27;78.45
74224;SHT31;62585;49.706;18.216;2023-10-19T00:54:16;4.58;77.69
74224;SHT31;62585;49.706;18.216;2023-10-19T00:56:47;4.56;77.08
74224;SHT31;62585;49.706;18.216;2023-10-19T00:59:23;4.42;77.69
74224;SHT31;62585;49.706;18.216;2023-10-19T01:01:53;4.44;77.50
74224;SHT31;62585;49.706;18.216;2023-10-19T01:04:24;4.52;77.74
74224;SHT31;62585;49.706;18.216;2023-10-19T01:06:51;4.49;77.86
74224;SHT31;62585;49.706;18.216;2023-10-19T01:09:35;4.54;77.69
74224;SHT31;62585;49.706;18.216;2023-10-19T01:12:02;4.45;77.78
74224;SHT31;62585;49.706;18.216;2023-10-19T01:17:57;4.51;77.82
74224;SHT31;62585;49.706;18.216;2023-10-19T01:20:24;4.55;77.96
74224;SHT31;62585;49.706;18.216;2023-10-19T01:22:58;4.59;76.99
74224;SHT31;62585;49.706;18.216;2023-10-19T01:25:45;4.59;77.45
74224;SHT31;62585;49.706;18.216;2023-10-19T01:28:36;4.61;77.40
74224;SHT31;62585;49.706;18.216;2023-10-19T01:31:18;4.62;77.25
74224;SHT31;62585;49.706;18.216;2023-10-19T01:33:49;4.68;76.93
74224;SHT31;62585;49.706;18.216;2023-10-19T01:36:14;4.49;77.13
74224;SHT31;62585;49.706;18.216;2023-10-19T01:38:42;4.68;76.41
74224;SHT31;62585;49.706;18.216;2023-10-19T01:41:08;4.66;76.00
74224;SHT31;62585;49.706;18.216;2023-10-19T01:43:48;4.58;75.85
74224;SHT31;62585;49.706;18.216;2023-10-19T01:46:15;4.42;75.90
74224;SHT31;62585;49.706;18.216;2023-10-19T01:48:53;4.52;75.83
74224;SHT31;62585;49.706;18.216;2023-10-19T01:51:22;4.33;75.82
74224;SHT31;62585;49.706;18.216;2023-10-19T01:53:49;4.40;76.07
74224;SHT31;62585;49.706;18.216;2023-10-19T01:56:16;4.36;76.30
74224;SHT31;62585;49.706;18.216;2023-10-19T01:58:44;4.31;76.80
74224;SHT31;62585;49.706;18.216;2023-10-19T02:01:13;4.06;77.26
74224;SHT31;62585;49.706;18.216;2023-10-19T02:03:39;4.22;77.21
74224;SHT31;62585;49.706;18.216;2023-10-19T02:06:11;4.31;76.94
74224;SHT31;62585;49.706;18.216;2023-10-19T02:08:54;4.27;77.22
74224;SHT31;62585;49.706;18.216;2023-10-19T02:14:00;4.28;77.43
74224;SHT31;62585;49.706;18.216;2023-10-19T02:16:30;4.38;77.02
74224;SHT31;62585;49.706;18.216;2023-10-19T02:18:58;3.94;78.28
74224;SHT31;62585;49.706;18.216;2023-10-19T02:21:24;4.18;77.44
74224;SHT31;62585;49.706;18.216;2023-10-19T02:23:57;4.16;77.92
74224;SHT31;62585;49.706;18.216;2023-10-19T02:26:23;4.30;77.58
74224;SHT31;62585;49.706;18.216;2023-10-19T02:28:53;4.36;77.81
74224;SHT31;62585;49.706;18.216;2023-10-19T02:31:19;4.31;78.40
74224;SHT31;62585;49.706;18.216;2023-10-19T02:33:51;4.38;78.58
74224;SHT31;62585;49.706;18.216;2023-10-19T02:36:29;4.54;78.54
74224;SHT31;62585;49.706;18.216;2023-10-19T02:38:56;4.65;78.57
74224;SHT31;62585;49.706;18.216;2023-10-19T02:41:26;4.55;78.76
74224;SHT31;62585;49.706;18.216;2023-10-19T02:43:55;4.58;78.72
74224;SHT31;62585;49.706;18.216;2023-10-19T02:46:52;4.55;79.38
74224;SHT31;62585;49.706;18.216;2023-10-19T02:49:23;4.77;79.42
74224;SHT31;62585;49.706;18.216;2023-10-19T02:51:52;4.80;79.59
74224;SHT31;62585;49.706;18.216;2023-10-19T02:54:20;4.77;79.60
74224;SHT31;62585;49.706;18.216;2023-10-19T02:56:52;4.76;79.69
74224;SHT31;62585;49.706;18.216;2023-10-19T02:59:19;4.90;79.02
74224;SHT31;62585;49.706;18.216;2023-10-19T03:01:53;4.83;78.96
74224;SHT31;62585;49.706;18.216;2023-10-19T03:04:26;4.95;78.62
74224;SHT31;62585;49.706;18.216;2023-10-19T03:06:54;4.75;79.05
74224;SHT31;62585;49.706;18.216;2023-10-19T03:09:22;4.73;79.27
74224;SHT31;62585;49.706;18.216;2023-10-19T03:11:54;4.92;79.20
74224;SHT31;62585;49.706;18.216;2023-10-19T03:14:30;4.95;79.07
74224;SHT31;62585;49.706;18.216;2023-10-19T03:16:57;4.83;78.85
74224;SHT31;62585;49.706;18.216;2023-10-19T03:19:25;4.72;79.05
74224;SHT31;62585;49.706;18.216;2023-10-19T03:21:52;4.77;78.79
74224;SHT31;62585;49.706;18.216;2023-10-19T03:24:19;4.87;79.18
74224;SHT31;62585;49.706;18.216;2023-10-19T03:27:04;4.82;79.18
74224;SHT31;62585;49.706;18.216;2023-10-19T03:29:50;4.79;79.19
74224;SHT31;62585;49.706;18.216;2023-10-19T03:32:23;5.04;79.02
74224;SHT31;62585;49.706;18.216;2023-10-19T03:34:53;5.04;78.93
74224;SHT31;62585;49.706;18.216;2023-10-19T03:37:22;5.09;79.21
74224;SHT31;62585;49.706;18.216;2023-10-19T03:39:50;5.23;79.51
74224;SHT31;62585;49.706;18.216;2023-10-19T03:42:17;5.38;78.63
74224;SHT31;62585;49.706;18.216;2023-10-19T03:44:43;5.26;78.80
74224;SHT31;62585;49.706;18.216;2023-10-19T03:47:15;5.20;79.12
74224;SHT31;62585;49.706;18.216;2023-10-19T03:49:45;5.24;78.98
74224;SHT31;62585;49.706;18.216;2023-10-19T03:52:13;5.33;78.92
74224;SHT31;62585;49.706;18.216;2023-10-19T03:54:39;5.31;79.32
74224;SHT31;62585;49.706;18.216;2023-10-19T03:57:07;5.45;78.57
74224;SHT31;62585;49.706;18.216;2023-10-19T03:59:45;5.48;78.36
74224;SHT31;62585;49.706;18.216;2023-10-19T04:02:11;5.48;79.16
74224;SHT31;62585;49.706;18.216;2023-10-19T04:04:45;5.52;78.94
74224;SHT31;62585;49.706;18.216;2023-10-19T04:07:16;5.54;79.25
74224;SHT31;62585;49.706;18.216;2023-10-19T04:09:55;5.51;79.50
74224;SHT31;62585;49.706;18.216;2023-10-19T04:12:35;5.48;78.90
74224;SHT31;62585;49.706;18.216;2023-10-19T04:15:06;5.44;79.75
74224;SHT31;62585;49.706;18.216;2023-10-19T04:17:52;5.83;78.73
74224;SHT31;62585;49.706;18.216;2023-10-19T04:20:20;5.95;78.12
74224;SHT31;62585;49.706;18.216;2023-10-19T04:23:01;5.75;78.36
74224;SHT31;62585;49.706;18.216;2023-10-19T04:25:36;5.75;78.70
74224;SHT31;62585;49.706;18.216;2023-10-19T04:28:03;5.65;78.97
74224;SHT31;62585;49.706;18.216;2023-10-19T04:30:30;5.78;79.01
74224;SHT31;62585;49.706;18.216;2023-10-19T04:32:59;5.82;78.70
74224;SHT31;62585;49.706;18.216;2023-10-19T04:35:27;5.82;78.35
74224;SHT31;62585;49.706;18.216;2023-10-19T04:37:56;5.78;78.72
74224;SHT31;62585;49.706;18.216;2023-10-19T04:40:23;5.75;78.90
74224;SHT31;62585;49.706;18.216;2023-10-19T04:42:53;5.75;79.02
74224;SHT31;62585;49.706;18.216;2023-10-19T04:45:19;5.86;79.04
74224;SHT31;62585;49.706;18.216;2023-10-19T04:47:45;5.89;78.91
74224;SHT31;62585;49.706;18.216;2023-10-19T04:50:12;5.73;79.71
74224;SHT31;62585;49.706;18.216;2023-10-19T04:52:38;5.68;79.25
74224;SHT31;62585;49.706;18.216;2023-10-19T04:55:05;5.92;78.73
74224;SHT31;62585;49.706;18.216;2023-10-19T04:57:31;5.55;79.70
74224;SHT31;62585;49.706;18.216;2023-10-19T04:59:57;5.72;79.35
74224;SHT31;62585;49.706;18.216;2023-10-19T05:02:24;5.73;78.76
74224;SHT31;62585;49.706;18.216;2023-10-19T05:04:49;5.47;79.38
74224;SHT31;62585;49.706;18.216;2023-10-19T05:07:15;5.72;79.19
74224;SHT31;62585;49.706;18.216;2023-10-19T05:09:45;5.61;79.82
74224;SHT31;62585;49.706;18.216;2023-10-19T05:12:13;5.65;80.12
74224;SHT31;62585;49.706;18.216;2023-10-19T05:14:40;5.72;79.85
74224;SHT31;62585;49.706;18.216;2023-10-19T05:17:08;5.86;79.41
74224;SHT31;62585;49.706;18.216;2023-10-19T05:19:38;5.98;79.18
74224;SHT31;62585;49.706;18.216;2023-10-19T05:22:06;6.10;78.69
74224;SHT31;62585;49.706;18.216;2023-10-19T05:24:33;6.11;78.36
74224;SHT31;62585;49.706;18.216;2023-10-19T05:26:59;6.09;78.43
74224;SHT31;62585;49.706;18.216;2023-10-19T05:29:24;6.06;78.89
74224;SHT31;62585;49.706;18.216;2023-10-19T05:31:51;6.07;79.03
74224;SHT31;62585;49.706;18.216;2023-10-19T05:34:26;6.20;78.33
74224;SHT31;62585;49.706;18.216;2023-10-19T05:37:02;6.23;78.39
74224;SHT31;62585;49.706;18.216;2023-10-19T05:39:31;6.31;77.89
74224;SHT31;62585;49.706;18.216;2023-10-19T05:41:57;6.07;79.06
74224;SHT31;62585;49.706;18.216;2023-10-19T05:44:29;6.24;78.33
74224;SHT31;62585;49.706;18.216;2023-10-19T05:46:56;6.27;78.01
74224;SHT31;62585;49.706;18.216;2023-10-19T05:49:23;6.11;78.66
74224;SHT31;62585;49.706;18.216;2023-10-19T05:51:50;6.26;78.27
74224;SHT31;62585;49.706;18.216;2023-10-19T05:54:16;6.37;78.50
74224;SHT31;62585;49.706;18.216;2023-10-19T05:56:43;6.36;78.69
74224;SHT31;62585;49.706;18.216;2023-10-19T05:59:08;6.57;77.86
74224;SHT31;62585;49.706;18.216;2023-10-19T06:01:36;6.59;77.64
74224;SHT31;62585;49.706;18.216;2023-10-19T06:04:05;6.69;77.33
74224;SHT31;62585;49.706;18.216;2023-10-19T06:06:31;6.85;76.67
74224;SHT31;62585;49.706;18.216;2023-10-19T06:08:56;6.86;76.93
74224;SHT31;62585;49.706;18.216;2023-10-19T06:11:22;6.95;76.66
74224;SHT31;62585;49.706;18.216;2023-10-19T06:13:48;7.09;76.35
74224;SHT31;62585;49.706;18.216;2023-10-19T06:16:14;7.09;76.36
74224;SHT31;62585;49.706;18.216;2023-10-19T06:18:40;7.16;76.36
74224;SHT31;62585;49.706;18.216;2023-10-19T06:21:08;7.07;76.16
74224;SHT31;62585;49.706;18.216;2023-10-19T06:23:35;7.26;76.03
74224;SHT31;62585;49.706;18.216;2023-10-19T06:26:11;7.48;76.48
74224;SHT31;62585;49.706;18.216;2023-10-19T06:28:39;7.44;76.28
74224;SHT31;62585;49.706;18.216;2023-10-19T06:31:06;7.58;76.13
74224;SHT31;62585;49.706;18.216;2023-10-19T06:33:32;7.51;76.45
74224;SHT31;62585;49.706;18.216;2023-10-19T06:35:59;7.63;75.92
74224;SHT31;62585;49.706;18.216;2023-10-19T06:38:27;7.75;75.33
74224;SHT31;62585;49.706;18.216;2023-10-19T06:40:53;7.77;75.83
74224;SHT31;62585;49.706;18.216;2023-10-19T06:43:18;7.85;75.86
74224;SHT31;62585;49.706;18.216;2023-10-19T06:45:46;7.92;76.63
74224;SHT31;62585;49.706;18.216;2023-10-19T06:48:12;7.78;76.69
74224;SHT31;62585;49.706;18.216;2023-10-19T06:50:38;7.92;76.33
74224;SHT31;62585;49.706;18.216;2023-10-19T06:53:05;8.06;75.94
74224;SHT31;62585;49.706;18.216;2023-10-19T06:55:31;8.34;75.18
74224;SHT31;62585;49.706;18.216;2023-10-19T06:57:56;8.46;75.45
74224;SHT31;62585;49.706;18.216;2023-10-19T07:00:24;8.56;74.98
74224;SHT31;62585;49.706;18.216;2023-10-19T07:02:55;8.30;74.90
74224;SHT31;62585;49.706;18.216;2023-10-19T07:05:22;8.37;75.54
74224;SHT31;62585;49.706;18.216;2023-10-19T07:07:51;8.03;76.43
74224;SHT31;62585;49.706;18.216;2023-10-19T07:10:18;8.06;77.05
74224;SHT31;62585;49.706;18.216;2023-10-19T07:12:46;8.10;76.39
74224;SHT31;62585;49.706;18.216;2023-10-19T07:15:13;7.95;77.78
74224;SHT31;62585;49.706;18.216;2023-10-19T07:17:43;8.28;77.12
74224;SHT31;62585;49.706;18.216;2023-10-19T07:20:11;8.51;76.80
74224;SHT31;62585;49.706;18.216;2023-10-19T07:22:51;8.64;75.95
74224;SHT31;62585;49.706;18.216;2023-10-19T07:25:18;8.72;75.28
74224;SHT31;62585;49.706;18.216;2023-10-19T07:27:50;8.74;75.41
74224;SHT31;62585;49.706;18.216;2023-10-19T07:30:20;8.77;75.43
74224;SHT31;62585;49.706;18.216;2023-10-19T07:32:50;8.93;75.09
74224;SHT31;62585;49.706;18.216;2023-10-19T07:35:26;9.05;74.82
74224;SHT31;62585;49.706;18.216;2023-10-19T07:37:52;9.11;74.58
74224;SHT31;62585;49.706;18.216;2023-10-19T07:40:19;8.95;74.58
74224;SHT31;62585;49.706;18.216;2023-10-19T07:42:45;8.93;74.71
74224;SHT31;62585;49.706;18.216;2023-10-19T07:45:12;9.05;74.40
74224;SHT31;62585;49.706;18.216;2023-10-19T07:47:39;8.97;74.98
74224;SHT31;62585;49.706;18.216;2023-10-19T07:50:11;8.67;75.43
74224;SHT31;62585;49.706;18.216;2023-10-19T07:52:52;8.91;75.43
74224;SHT31;62585;49.706;18.216;2023-10-19T07:55:20;8.93;75.17
74224;SHT31;62585;49.706;18.216;2023-10-19T07:57:52;9.09;74.92
74224;SHT31;62585;49.706;18.216;2023-10-19T08:00:19;9.20;74.50
74224;SHT31;62585;49.706;18.216;2023-10-19T08:02:46;8.89;74.75
74224;SHT31;62585;49.706;18.216;2023-10-19T08:05:16;9.23;74.50
74224;SHT31;62585;49.706;18.216;2023-10-19T08:07:44;9.09;75.62
74224;SHT31;62585;49.706;18.216;2023-10-19T08:10:14;9.19;75.88
74224;SHT31;62585;49.706;18.216;2023-10-19T08:12:48;8.77;77.31
74224;SHT31;62585;49.706;18.216;2023-10-19T08:15:25;9.18;76.53
74224;SHT31;62585;49.706;18.216;2023-10-19T08:17:51;9.30;75.98
74224;SHT31;62585;49.706;18.216;2023-10-19T08:20:19;9.51;75.09
74224;SHT31;62585;49.706;18.216;2023-10-19T08:22:58;9.42;75.77
74224;SHT31;62585;49.706;18.216;2023-10-19T08:25:27;9.50;76.73
74224;SHT31;62585;49.706;18.216;2023-10-19T08:27:53;9.53;76.82
74224;SHT31;62585;49.706;18.216;2023-10-19T08:30:23;9.44;77.67
74224;SHT31;62585;49.706;18.216;2023-10-19T08:32:50;9.67;76.74
74224;SHT31;62585;49.706;18.216;2023-10-19T08:35:19;9.88;75.73
74224;SHT31;62585;49.706;18.216;2023-10-19T08:37:55;9.84;77.00
74224;SHT31;62585;49.706;18.216;2023-10-19T08:40:25;9.90;77.34
74224;SHT31;62585;49.706;18.216;2023-10-19T08:42:52;9.87;76.12
74224;SHT31;62585;49.706;18.216;2023-10-19T08:45:19;10.02;76.38
74224;SHT31;62585;49.706;18.216;2023-10-19T08:47:56;10.16;76.57
74224;SHT31;62585;49.706;18.216;2023-10-19T08:50:28;10.08;76.93
74224;SHT31;62585;49.706;18.216;2023-10-19T08:52:59;10.19;77.19
74224;SHT31;62585;49.706;18.216;2023-10-19T08:55:25;10.35;76.82
74224;SHT31;62585;49.706;18.216;2023-10-19T08:57:52;10.43;77.07
74224;SHT31;62585;49.706;18.216;2023-10-19T09:00:18;10.50;76.52
74224;SHT31;62585;49.706;18.216;2023-10-19T09:02:47;10.49;76.73
74224;SHT31;62585;49.706;18.216;2023-10-19T09:05:14;10.55;76.05
74224;SHT31;62585;49.706;18.216;2023-10-19T09:07:54;10.66;76.19
74224;SHT31;62585;49.706;18.216;2023-10-19T09:10:28;10.57;75.79
74224;SHT31;62585;49.706;18.216;2023-10-19T09:13:04;10.69;75.09
74224;SHT31;62585;49.706;18.216;2023-10-19T09:15:34;10.49;75.82
74224;SHT31;62585;49.706;18.216;2023-10-19T09:18:16;10.64;75.91
74224;SHT31;62585;49.706;18.216;2023-10-19T09:20:48;10.73;74.86
74224;SHT31;62585;49.706;18.216;2023-10-19T09:23:27;10.77;75.37
74224;SHT31;62585;49.706;18.216;2023-10-19T09:25:57;10.73;75.23
74224;SHT31;62585;49.706;18.216;2023-10-19T09:28:23;10.80;75.34
74224;SHT31;62585;49.706;18.216;2023-10-19T09:30:50;10.98;75.17
74224;SHT31;62585;49.706;18.216;2023-10-19T09:33:19;11.00;74.93
74224;SHT31;62585;49.706;18.216;2023-10-19T09:35:48;10.85;76.08
74224;SHT31;62585;49.706;18.216;2023-10-19T09:38:16;11.15;75.15
74224;SHT31;62585;49.706;18.216;2023-10-19T09:40:42;11.19;74.63
74224;SHT31;62585;49.706;18.216;2023-10-19T09:43:16;11.14;74.78
74224;SHT31;62585;49.706;18.216;2023-10-19T09:45:48;11.07;75.26
74224;SHT31;62585;49.706;18.216;2023-10-19T09:48:19;11.32;74.74
74224;SHT31;62585;49.706;18.216;2023-10-19T09:50:53;11.40;75.02
74224;SHT31;62585;49.706;18.216;2023-10-19T09:53:23;11.51;74.66
74224;SHT31;62585;49.706;18.216;2023-10-19T09:55:54;11.36;76.02
74224;SHT31;62585;49.706;18.216;2023-10-19T09:58:28;11.25;76.06
74224;SHT31;62585;49.706;18.216;2023-10-19T10:00:57;11.43;75.54
74224;SHT31;62585;49.706;18.216;2023-10-19T10:06:12;11.89;74.16
74224;SHT31;62585;49.706;18.216;2023-10-19T10:08:40;11.77;75.25
74224;SHT31;62585;49.706;18.216;2023-10-19T10:11:19;11.86;75.07
74224;SHT31;62585;49.706;18.216;2023-10-19T10:13:46;11.90;74.34
74224;SHT31;62585;49.706;18.216;2023-10-19T10:16:22;11.89;74.50
74224;SHT31;62585;49.706;18.216;2023-10-19T10:18:49;12.18;74.83
74224;SHT31;62585;49.706;18.216;2023-10-19T10:21:19;12.37;73.77
74224;SHT31;62585;49.706;18.216;2023-10-19T10:23:54;12.23;73.75
74224;SHT31;62585;49.706;18.216;2023-10-19T10:26:22;12.46;73.81
74224;SHT31;62585;49.706;18.216;2023-10-19T10:29:14;12.73;73.00
74224;SHT31;62585;49.706;18.216;2023-10-19T10:31:42;12.76;72.04
74224;SHT31;62585;49.706;18.216;2023-10-19T10:34:11;12.75;72.26
74224;SHT31;62585;49.706;18.216;2023-10-19T10:37:01;12.61;71.95
74224;SHT31;62585;49.706;18.216;2023-10-19T10:39:29;12.76;72.16
74224;SHT31;62585;49.706;18.216;2023-10-19T10:42:00;12.76;71.90
74224;SHT31;62585;49.706;18.216;2023-10-19T10:47:06;12.76;72.10
74224;SHT31;62585;49.706;18.216;2023-10-19T10:49:57;13.02;70.58
74224;SHT31;62585;49.706;18.216;2023-10-19T10:52:31;13.18;69.39
74224;SHT31;62585;49.706;18.216;2023-10-19T10:55:11;13.40;69.31
74224;SHT31;62585;49.706;18.216;2023-10-19T10:57:38;13.43;70.01
74224;SHT31;62585;49.706;18.216;2023-10-19T11:00:08;13.40;69.36
74224;SHT31;62585;49.706;18.216;2023-10-19T11:02:46;13.38;70.15
74224;SHT31;62585;49.706;18.216;2023-10-19T11:05:14;13.58;69.50
74224;SHT31;62585;49.706;18.216;2023-10-19T11:07:41;13.61;68.75
74224;SHT31;62585;49.706;18.216;2023-10-19T11:10:07;13.93;68.67
74224;SHT31;62585;49.706;18.216;2023-10-19T11:12:36;14.16;68.49
74224;SHT31;62585;49.706;18.216;2023-10-19T11:15:03;14.36;67.14
74224;SHT31;62585;49.706;18.216;2023-10-19T11:17:42;14.45;65.97
74224;SHT31;62585;49.706;18.216;2023-10-19T11:20:08;14.78;65.46
74224;SHT31;62585;49.706;18.216;2023-10-19T11:22:48;14.78;66.13
74224;SHT31;62585;49.706;18.216;2023-10-19T11:25:28;14.78;66.25
74224;SHT31;62585;49.706;18.216;2023-10-19T11:27:59;14.57;66.97
74224;SHT31;62585;49.706;18.216;2023-10-19T11:30:31;14.48;68.03
74224;SHT31;62585;49.706;18.216;2023-10-19T11:32:58;14.32;68.60
74224;SHT31;62585;49.706;18.216;2023-10-19T11:35:26;14.60;68.42
74224;SHT31;62585;49.706;18.216;2023-10-19T11:37:54;14.81;68.39
74224;SHT31;62585;49.706;18.216;2023-10-19T11:40:21;14.89;68.09
74224;SHT31;62585;49.706;18.216;2023-10-19T11:42:48;14.57;69.16
74224;SHT31;62585;49.706;18.216;2023-10-19T11:45:14;14.63;69.36
74224;SHT31;62585;49.706;18.216;2023-10-19T11:47:43;14.64;69.70
74224;SHT31;62585;49.706;18.216;2023-10-19T11:50:13;14.63;70.37
74224;SHT31;62585;49.706;18.216;2023-10-19T11:52:42;14.57;71.37
74224;SHT31;62585;49.706;18.216;2023-10-19T11:55:08;14.50;72.28
74224;SHT31;62585;49.706;18.216;2023-10-19T11:57:35;14.57;72.08
74224;SHT31;62585;49.706;18.216;2023-10-19T12:00:03;14.63;71.94
74224;SHT31;62585;49.706;18.216;2023-10-19T12:02:35;14.43;73.23
74224;SHT31;62585;49.706;18.216;2023-10-19T12:05:04;14.34;73.65
74224;SHT31;62585;49.706;18.216;2023-10-19T12:07:39;14.34;74.30
74224;SHT31;62585;49.706;18.216;2023-10-19T12:10:07;14.48;74.43
74224;SHT31;62585;49.706;18.216;2023-10-19T12:12:34;14.38;74.91
74224;SHT31;62585;49.706;18.216;2023-10-19T12:15:00;14.61;74.63
74224;SHT31;62585;49.706;18.216;2023-10-19T12:17:28;14.41;74.86
74224;SHT31;62585;49.706;18.216;2023-10-19T12:19:55;14.24;75.10
74224;SHT31;62585;49.706;18.216;2023-10-19T12:22:21;14.29;75.26
74224;SHT31;62585;49.706;18.216;2023-10-19T12:24:47;14.33;75.31
74224;SHT31;62585;49.706;18.216;2023-10-19T12:27:14;14.32;75.10
74224;SHT31;62585;49.706;18.216;2023-10-19T12:29:40;14.22;75.36
74224;SHT31;62585;49.706;18.216;2023-10-19T12:32:06;14.27;75.64
74224;SHT31;62585;49.706;18.216;2023-10-19T12:34:32;14.30;75.44
74224;SHT31;62585;49.706;18.216;2023-10-19T12:36:58;14.44;74.58
74224;SHT31;62585;49.706;18.216;2023-10-19T12:39:25;14.44;74.55
74224;SHT31;62585;49.706;18.216;2023-10-19T12:42:11;14.54;74.46
74224;SHT31;62585;49.706;18.216;2023-10-19T12:44:37;14.75;74.16
74224;SHT31;62585;49.706;18.216;2023-10-19T12:47:08;14.54;74.73
74224;SHT31;62585;49.706;18.216;2023-10-19T12:49:41;14.68;74.70
74224;SHT31;62585;49.706;18.216;2023-10-19T12:52:08;14.78;73.34
74224;SHT31;62585;49.706;18.216;2023-10-19T12:54:34;14.77;73.85
74224;SHT31;62585;49.706;18.216;2023-10-19T12:57:01;14.75;74.34
74224;SHT31;62585;49.706;18.216;2023-10-19T12:59:29;14.78;74.60
74224;SHT31;62585;49.706;18.216;2023-10-19T13:01:56;14.68;74.54
74224;SHT31;62585;49.706;18.216;2023-10-19T13:04:25;14.84;74.66
74224;SHT31;62585;49.706;18.216;2023-10-19T13:06:51;14.89;74.05
74224;SHT31;62585;49.706;18.216;2023-10-19T13:09:18;14.95;74.27
74224;SHT31;62585;49.706;18.216;2023-10-19T13:11:58;14.79;74.19
74224;SHT31;62585;49.706;18.216;2023-10-19T13:14:24;14.98;74.25
74224;SHT31;62585;49.706;18.216;2023-10-19T13:16:50;15.02;74.48
74224;SHT31;62585;49.706;18.216;2023-10-19T13:19:17;15.06;74.25
74224;SHT31;62585;49.706;18.216;2023-10-19T13:21:50;15.08;72.91
74224;SHT31;62585;49.706;18.216;2023-10-19T13:24:18;15.00;73.21
74224;SHT31;62585;49.706;18.216;2023-10-19T13:26:49;14.85;73.83
74224;SHT31;62585;49.706;18.216;2023-10-19T13:29:16;15.23;73.11
74224;SHT31;62585;49.706;18.216;2023-10-19T13:31:43;15.16;73.36
74224;SHT31;62585;49.706;18.216;2023-10-19T13:34:17;14.98;73.35
74224;SHT31;62585;49.706;18.216;2023-10-19T13:36:43;14.98;73.06
74224;SHT31;62585;49.706;18.216;2023-10-19T13:39:11;15.02;73.17
74224;SHT31;62585;49.706;18.216;2023-10-19T13:41:43;15.35;72.24
74224;SHT31;62585;49.706;18.216;2023-10-19T13:44:09;15.46;72.05
74224;SHT31;62585;49.706;18.216;2023-10-19T13:46:35;15.29;71.82
74224;SHT31;62585;49.706;18.216;2023-10-19T13:49:01;15.50;71.70
74224;SHT31;62585;49.706;18.216;2023-10-19T13:51:29;15.26;71.92
74224;SHT31;62585;49.706;18.216;2023-10-19T13:53:55;15.12;72.41
74224;SHT31;62585;49.706;18.216;2023-10-19T13:56:22;14.96;72.99
74224;SHT31;62585;49.706;18.216;2023-10-19T13:58:47;15.06;72.84
74224;SHT31;62585;49.706;18.216;2023-10-19T14:01:15;15.05;72.79
74224;SHT31;62585;49.706;18.216;2023-10-19T14:03:41;15.00;72.70
74224;SHT31;62585;49.706;18.216;2023-10-19T14:06:14;14.96;73.31
74224;SHT31;62585;49.706;18.216;2023-10-19T14:08:40;14.91;73.39
74224;SHT31;62585;49.706;18.216;2023-10-19T14:11:06;15.10;73.51
74224;SHT31;62585;49.706;18.216;2023-10-19T14:13:33;15.32;72.49
74224;SHT31;62585;49.706;18.216;2023-10-19T14:15:59;15.12;73.25
74224;SHT31;62585;49.706;18.216;2023-10-19T14:18:25;15.42;72.54
74224;SHT31;62585;49.706;18.216;2023-10-19T14:20:51;15.36;72.02
74224;SHT31;62585;49.706;18.216;2023-10-19T14:23:16;15.32;72.67
74224;SHT31;62585;49.706;18.216;2023-10-19T14:25:42;15.29;72.48
74224;SHT31;62585;49.706;18.216;2023-10-19T14:28:09;15.46;72.55
74224;SHT31;62585;49.706;18.216;2023-10-19T14:30:35;15.50;72.51
74224;SHT31;62585;49.706;18.216;2023-10-19T14:33:06;15.54;72.88
74224;SHT31;62585;49.706;18.216;2023-10-19T14:35:45;15.61;73.02
74224;SHT31;62585;49.706;18.216;2023-10-19T14:38:12;15.49;74.15
74224;SHT31;62585;49.706;18.216;2023-10-19T14:40:43;15.32;74.01
74224;SHT31;62585;49.706;18.216;2023-10-19T14:43:13;15.39;73.48
74224;SHT31;62585;49.706;18.216;2023-10-19T14:45:41;15.33;74.03
74224;SHT31;62585;49.706;18.216;2023-10-19T14:48:08;14.99;75.10
74224;SHT31;62585;49.706;18.216;2023-10-19T14:50:37;15.09;74.84
74224;SHT31;62585;49.706;18.216;2023-10-19T14:53:03;15.03;74.94
74224;SHT31;62585;49.706;18.216;2023-10-19T14:55:29;15.03;74.82
74224;SHT31;62585;49.706;18.216;2023-10-19T14:57:55;15.08;74.96
74224;SHT31;62585;49.706;18.216;2023-10-19T15:00:22;15.25;74.19
74224;SHT31;62585;49.706;18.216;2023-10-19T15:02:52;15.25;74.49
74224;SHT31;62585;49.706;18.216;2023-10-19T15:05:23;14.95;75.30
74224;SHT31;62585;49.706;18.216;2023-10-19T15:07:50;14.93;75.49
74224;SHT31;62585;49.706;18.216;2023-10-19T15:10:24;15.23;74.49
74224;SHT31;62585;49.706;18.216;2023-10-19T15:12:51;15.35;74.01
74224;SHT31;62585;49.706;18.216;2023-10-19T15:15:17;15.39;74.09
74224;SHT31;62585;49.706;18.216;2023-10-19T15:17:46;15.15;74.71
74224;SHT31;62585;49.706;18.216;2023-10-19T15:20:15;14.84;75.56
74224;SHT31;62585;49.706;18.216;2023-10-19T15:22:41;14.70;76.17
74224;SHT31;62585;49.706;18.216;2023-10-19T15:25:07;14.67;76.34
74224;SHT31;62585;49.706;18.216;2023-10-19T15:27:38;14.72;76.56
74224;SHT31;62585;49.706;18.216;2023-10-19T15:30:05;14.44;77.54
74224;SHT31;62585;49.706;18.216;2023-10-19T15:32:31;14.41;77.66
74224;SHT31;62585;49.706;18.216;2023-10-19T15:34:57;14.61;77.16
74224;SHT31;62585;49.706;18.216;2023-10-19T15:37:23;14.51;77.16
74224;SHT31;62585;49.706;18.216;2023-10-19T15:39:49;14.65;76.89
74224;SHT31;62585;49.706;18.216;2023-10-19T15:42:15;14.91;76.31
74224;SHT31;62585;49.706;18.216;2023-10-19T15:44:46;15.18;75.45
74224;SHT31;62585;49.706;18.216;2023-10-19T15:47:12;15.42;74.61
74224;SHT31;62585;49.706;18.216;2023-10-19T15:49:49;15.37;74.65
74224;SHT31;62585;49.706;18.216;2023-10-19T15:52:22;15.35;74.86